sensor_id;sensor_type;location;lat;lon;timestamp;pressure;altitude;pressure_sealevel;temperature;humidity
69630;BME280;56857;52.212;5.496;2024-02-15T00:01:35;101779.91;;;11.16;100.00
69630;BME280;56857;52.212;5.496;2024-02-15T00:04:00;101788.56;;;11.18;100.00
69630;BME280;56857;52.212;5.496;2024-02-15T00:06:26;101775.47;;;11.16;100.00
69630;BME280;56857;52.212;5.496;2024-02-15T00:08:51;101776.31;;;11.17;100.00
69630;BME280;56857;52.212;5.496;2024-02-15T00:11:16;101779.91;;;11.16;100.00
69630;BME280;56857;52.212;5.496;2024-02-15T00:13:42;101776.31;;;11.17;100.00
69630;BME280;56857;52.212;5.496;2024-02-15T00:16:07;101776.31;;;11.17;100.00
69630;BME280;56857;52.212;5.496;2024-02-15T00:18:32;101781.44;;;11.18;100.00
69630;BME280;56857;52.212;5.496;2024-02-15T00:20:58;101773.66;;;11.17;100.00
69630;BME280;56857;52.212;5.496;2024-02-15T00:23:23;101774.31;;;11.19;100.00
69630;BME280;56857;52.212;5.496;2024-02-15T00:25:48;101776.97;;;11.19;100.00
69630;BME280;56857;52.212;5.496;2024-02-15T00:28:13;101781.44;;;11.18;100.00
69630;BME280;56857;52.212;5.496;2024-02-15T00:30:39;101776.13;;;11.18;100.00
69630;BME280;56857;52.212;5.496;2024-02-15T00:33:04;101774.31;;;11.19;100.00
69630;BME280;56857;52.212;5.496;2024-02-15T00:35:30;101776.13;;;11.18;100.00
69630;BME280;56857;52.212;5.496;2024-02-15T00:37:55;101781.44;;;11.18;100.00
69630;BME280;56857;52.212;5.496;2024-02-15T00:40:20;101779.63;;;11.19;100.00
69630;BME280;56857;52.212;5.496;2024-02-15T00:42:46;101778.94;;;11.17;100.00
69630;BME280;56857;52.212;5.496;2024-02-15T00:45:11;101782.44;;;11.17;100.00
69630;BME280;56857;52.212;5.496;2024-02-15T00:47:36;101780.63;;;11.18;100.00
69630;BME280;56857;52.212;5.496;2024-02-15T00:50:02;101783.28;;;11.18;100.00
69630;BME280;56857;52.212;5.496;2024-02-15T00:52:27;101776.97;;;11.19;100.00
69630;BME280;56857;52.212;5.496;2024-02-15T00:54:53;101776.13;;;11.18;100.00
69630;BME280;56857;52.212;5.496;2024-02-15T00:57:18;101771.81;;;11.17;100.00
69630;BME280;56857;52.212;5.496;2024-02-15T00:59:43;101769.16;;;11.17;100.00
69630;BME280;56857;52.212;5.496;2024-02-15T01:02:09;101771.66;;;11.19;100.00
69630;BME280;56857;52.212;5.496;2024-02-15T01:04:34;101769.88;;;11.19;100.00
69630;BME280;56857;52.212;5.496;2024-02-15T01:07:00;101771.66;;;11.19;100.00
69630;BME280;56857;52.212;5.496;2024-02-15T01:09:25;101769.00;;;11.19;100.00
69630;BME280;56857;52.212;5.496;2024-02-15T01:11:50;101767.34;;;11.18;100.00
69630;BME280;56857;52.212;5.496;2024-02-15T01:14:16;101769.88;;;11.19;100.00
69630;BME280;56857;52.212;5.496;2024-02-15T01:16:42;101767.22;;;11.19;100.00
69630;BME280;56857;52.212;5.496;2024-02-15T01:19:07;101762.72;;;11.20;100.00
69630;BME280;56857;52.212;5.496;2024-02-15T01:21:33;101763.69;;;11.19;100.00
69630;BME280;56857;52.212;5.496;2024-02-15T01:23:59;101760.91;;;11.20;100.00
69630;BME280;56857;52.212;5.496;2024-02-15T01:26:24;101762.72;;;11.20;100.00
69630;BME280;56857;52.212;5.496;2024-02-15T01:28:49;101757.41;;;11.20;100.00
69630;BME280;56857;52.212;5.496;2024-02-15T01:31:15;101757.25;;;11.21;100.00
69630;BME280;56857;52.212;5.496;2024-02-15T01:33:40;101755.59;;;11.20;100.00
69630;BME280;56857;52.212;5.496;2024-02-15T01:36:06;101752.94;;;11.20;100.00
69630;BME280;56857;52.212;5.496;2024-02-15T01:38:31;101750.28;;;11.20;100.00
69630;BME280;56857;52.212;5.496;2024-02-15T01:40:56;101745.81;;;11.21;100.00
69630;BME280;56857;52.212;5.496;2024-02-15T01:43:22;101747.63;;;11.20;100.00
69630;BME280;56857;52.212;5.496;2024-02-15T01:45:47;101753.94;;;11.19;100.00
69630;BME280;56857;52.212;5.496;2024-02-15T01:48:13;101753.25;;;11.17;100.00
69630;BME280;56857;52.212;5.496;2024-02-15T01:50:39;101755.72;;;11.19;100.00
69630;BME280;56857;52.212;5.496;2024-02-15T01:53:07;101764.69;;;11.18;100.00
69630;BME280;56857;52.212;5.496;2024-02-15T01:55:32;101756.72;;;11.18;100.00
69630;BME280;56857;52.212;5.496;2024-02-15T01:58:00;101759.38;;;11.18;100.00
69630;BME280;56857;52.212;5.496;2024-02-15T02:00:26;101750.59;;;11.17;100.00
69630;BME280;56857;52.212;5.496;2024-02-15T02:02:53;101746.13;;;11.18;100.00
69630;BME280;56857;52.212;5.496;2024-02-15T02:05:19;101736.50;;;11.17;100.00
69630;BME280;56857;52.212;5.496;2024-02-15T02:07:44;101745.41;;;11.16;100.00
69630;BME280;56857;52.212;5.496;2024-02-15T02:10:09;101733.16;;;11.14;100.00
69630;BME280;56857;52.212;5.496;2024-02-15T02:12:35;101724.06;;;11.17;100.00
69630;BME280;56857;52.212;5.496;2024-02-15T02:15:00;101720.41;;;11.18;100.00
69630;BME280;56857;52.212;5.496;2024-02-15T02:17:25;101726.84;;;11.16;100.00
69630;BME280;56857;52.212;5.496;2024-02-15T02:19:51;101721.53;;;11.16;100.00
69630;BME280;56857;52.212;5.496;2024-02-15T02:22:17;101724.88;;;11.18;100.00
69630;BME280;56857;52.212;5.496;2024-02-15T02:27:21;101731.84;;;11.19;100.00
69630;BME280;56857;52.212;5.496;2024-02-15T02:29:47;101725.88;;;11.17;100.00
69630;BME280;56857;52.212;5.496;2024-02-15T02:32:12;101719.75;;;11.16;100.00
69630;BME280;56857;52.212;5.496;2024-02-15T02:34:38;101720.56;;;11.17;100.00
69630;BME280;56857;52.212;5.496;2024-02-15T02:37:03;101714.28;;;11.18;100.00
69630;BME280;56857;52.212;5.496;2024-02-15T02:39:28;101715.09;;;11.18;100.00
69630;BME280;56857;52.212;5.496;2024-02-15T02:41:54;101713.13;;;11.20;100.00
69630;BME280;56857;52.212;5.496;2024-02-15T02:44:19;101716.09;;;11.17;100.00
69630;BME280;56857;52.212;5.496;2024-02-15T02:46:44;101716.09;;;11.17;100.00
69630;BME280;56857;52.212;5.496;2024-02-15T02:49:10;101717.22;;;11.14;100.00
69630;BME280;56857;52.212;5.496;2024-02-15T02:51:35;101719.06;;;11.14;100.00
69630;BME280;56857;52.212;5.496;2024-02-15T02:54:00;101717.38;;;11.13;100.00
69630;BME280;56857;52.212;5.496;2024-02-15T02:56:26;101722.84;;;11.11;100.00
69630;BME280;56857;52.212;5.496;2024-02-15T02:58:51;101720.03;;;11.13;100.00
69630;BME280;56857;52.212;5.496;2024-02-15T03:01:16;101715.69;;;11.12;100.00
69630;BME280;56857;52.212;5.496;2024-02-15T03:03:41;101712.91;;;11.13;100.00
69630;BME280;56857;52.212;5.496;2024-02-15T03:06:07;101714.75;;;11.13;100.00
69630;BME280;56857;52.212;5.496;2024-02-15T03:08:32;101710.41;;;11.12;100.00
69630;BME280;56857;52.212;5.496;2024-02-15T03:10:57;101711.09;;;11.14;100.00
69630;BME280;56857;52.212;5.496;2024-02-15T03:13:23;101707.59;;;11.13;100.00
69630;BME280;56857;52.212;5.496;2024-02-15T03:15:48;101709.44;;;11.13;100.00
69630;BME280;56857;52.212;5.496;2024-02-15T03:18:17;101710.41;;;11.12;100.00
69630;BME280;56857;52.212;5.496;2024-02-15T03:20:42;101710.56;;;11.10;100.00
69630;BME280;56857;52.212;5.496;2024-02-15T03:23:08;101718.22;;;11.13;100.00
69630;BME280;56857;52.212;5.496;2024-02-15T03:25:33;101709.56;;;11.11;100.00
69630;BME280;56857;52.212;5.496;2024-02-15T03:27:59;101713.22;;;11.10;100.00
69630;BME280;56857;52.212;5.496;2024-02-15T03:30:26;101708.03;;;11.09;100.00
69630;BME280;56857;52.212;5.496;2024-02-15T03:32:52;101712.22;;;11.11;100.00
69630;BME280;56857;52.212;5.496;2024-02-15T03:35:19;101705.25;;;11.10;100.00
69630;BME280;56857;52.212;5.496;2024-02-15T03:37:44;101714.03;;;11.11;100.00
69630;BME280;56857;52.212;5.496;2024-02-15T03:40:10;101711.53;;;11.09;100.00
69630;BME280;56857;52.212;5.496;2024-02-15T03:42:36;101716.00;;;11.09;100.00
69630;BME280;56857;52.212;5.496;2024-02-15T03:45:01;101711.53;;;11.09;100.00
69630;BME280;56857;52.212;5.496;2024-02-15T03:47:26;101708.03;;;11.09;100.00
69630;BME280;56857;52.212;5.496;2024-02-15T03:49:52;101707.06;;;11.10;100.00
69630;BME280;56857;52.212;5.496;2024-02-15T03:52:17;101703.72;;;11.08;100.00
69630;BME280;56857;52.212;5.496;2024-02-15T03:54:42;101712.69;;;11.07;100.00
69630;BME280;56857;52.212;5.496;2024-02-15T03:57:07;101708.22;;;11.07;100.00
69630;BME280;56857;52.212;5.496;2024-02-15T03:59:33;101699.41;;;11.07;100.00
69630;BME280;56857;52.212;5.496;2024-02-15T04:01:58;101697.59;;;11.07;100.00
69630;BME280;56857;52.212;5.496;2024-02-15T04:04:23;101691.47;;;11.07;100.00
69630;BME280;56857;52.212;5.496;2024-02-15T04:06:50;101704.72;;;11.07;100.00
69630;BME280;56857;52.212;5.496;2024-02-15T04:09:15;101705.69;;;11.06;100.00
69630;BME280;56857;52.212;5.496;2024-02-15T04:11:41;101705.69;;;11.06;100.00
69630;BME280;56857;52.212;5.496;2024-02-15T04:14:06;101702.22;;;11.05;100.00
69630;BME280;56857;52.212;5.496;2024-02-15T04:16:31;101698.72;;;11.05;100.00
69630;BME280;56857;52.212;5.496;2024-02-15T04:18:57;101700.56;;;11.04;100.00
69630;BME280;56857;52.212;5.496;2024-02-15T04:21:22;101700.56;;;11.04;100.00
69630;BME280;56857;52.212;5.496;2024-02-15T04:23:47;101697.06;;;11.04;100.00
69630;BME280;56857;52.212;5.496;2024-02-15T04:26:13;101689.09;;;11.04;100.00
69630;BME280;56857;52.212;5.496;2024-02-15T04:28:38;101686.59;;;11.02;100.00
69630;BME280;56857;52.212;5.496;2024-02-15T04:31:03;101686.59;;;11.02;100.00
69630;BME280;56857;52.212;5.496;2024-02-15T04:33:29;101679.47;;;11.03;100.00
69630;BME280;56857;52.212;5.496;2024-02-15T04:35:54;101689.09;;;11.04;100.00
69630;BME280;56857;52.212;5.496;2024-02-15T04:38:19;101689.09;;;11.04;100.00
69630;BME280;56857;52.212;5.496;2024-02-15T04:40:44;101684.47;;;11.06;100.00
69630;BME280;56857;52.212;5.496;2024-02-15T04:43:10;101688.94;;;11.05;100.00
69630;BME280;56857;52.212;5.496;2024-02-15T04:45:35;101682.63;;;11.06;100.00
69630;BME280;56857;52.212;5.496;2024-02-15T04:48:01;101683.50;;;11.07;100.00
69630;BME280;56857;52.212;5.496;2024-02-15T04:50:27;101687.94;;;11.06;100.00
69630;BME280;56857;52.212;5.496;2024-02-15T04:52:52;101679.16;;;11.06;100.00
69630;BME280;56857;52.212;5.496;2024-02-15T04:55:18;101682.63;;;11.06;100.00
69630;BME280;56857;52.212;5.496;2024-02-15T04:57:43;101678.03;;;11.08;100.00
69630;BME280;56857;52.212;5.496;2024-02-15T05:00:09;101671.88;;;11.08;100.00
69630;BME280;56857;52.212;5.496;2024-02-15T05:02:34;101666.59;;;11.08;100.00
69630;BME280;56857;52.212;5.496;2024-02-15T05:05:00;101667.41;;;11.08;100.00
69630;BME280;56857;52.212;5.496;2024-02-15T05:07:25;101659.44;;;11.08;100.00
69630;BME280;56857;52.212;5.496;2024-02-15T05:09:51;101659.63;;;11.07;100.00
69630;BME280;56857;52.212;5.496;2024-02-15T05:12:23;101657.94;;;11.06;100.00
69630;BME280;56857;52.212;5.496;2024-02-15T05:14:48;101663.41;;;11.04;100.00
69630;BME280;56857;52.212;5.496;2024-02-15T05:17:14;101664.06;;;11.06;100.00
69630;BME280;56857;52.212;5.496;2024-02-15T05:19:39;101665.88;;;11.06;100.00
69630;BME280;56857;52.212;5.496;2024-02-15T05:22:04;101667.72;;;11.05;100.00
69630;BME280;56857;52.212;5.496;2024-02-15T05:24:30;101673.84;;;11.06;100.00
69630;BME280;56857;52.212;5.496;2024-02-15T05:26:55;101667.72;;;11.05;100.00
69630;BME280;56857;52.212;5.496;2024-02-15T05:29:21;101668.53;;;11.06;100.00
69630;BME280;56857;52.212;5.496;2024-02-15T05:31:46;101671.19;;;11.06;100.00
69630;BME280;56857;52.212;5.496;2024-02-15T05:34:11;101662.41;;;11.05;100.00
69630;BME280;56857;52.212;5.496;2024-02-15T05:36:37;101665.59;;;11.09;100.00
69630;BME280;56857;52.212;5.496;2024-02-15T05:39:03;101663.09;;;11.07;100.00
69630;BME280;56857;52.212;5.496;2024-02-15T05:41:29;101656.81;;;11.08;100.00
69630;BME280;56857;52.212;5.496;2024-02-15T05:43:54;101645.34;;;11.08;100.00
69630;BME280;56857;52.212;5.496;2024-02-15T05:46:20;101630.97;;;11.10;100.00
69630;BME280;56857;52.212;5.496;2024-02-15T05:48:45;101616.69;;;11.11;100.00
69630;BME280;56857;52.212;5.496;2024-02-15T05:51:10;101602.72;;;11.09;100.00
69630;BME280;56857;52.212;5.496;2024-02-15T05:53:36;101598.41;;;11.08;100.00
69630;BME280;56857;52.212;5.496;2024-02-15T05:56:02;101604.41;;;11.10;100.00
69630;BME280;56857;52.212;5.496;2024-02-15T05:58:28;101591.97;;;11.11;100.00
69630;BME280;56857;52.212;5.496;2024-02-15T06:00:53;101592.13;;;11.09;100.00
69630;BME280;56857;52.212;5.496;2024-02-15T06:03:19;101586.81;;;11.09;100.00
69630;BME280;56857;52.212;5.496;2024-02-15T06:05:44;101599.94;;;11.11;100.00
69630;BME280;56857;52.212;5.496;2024-02-15T06:08:12;101608.91;;;11.10;100.00
69630;BME280;56857;52.212;5.496;2024-02-15T06:10:38;101606.25;;;11.10;100.00
69630;BME280;56857;52.212;5.496;2024-02-15T06:13:03;101605.38;;;11.09;100.00
69630;BME280;56857;52.212;5.496;2024-02-15T06:15:29;101617.69;;;11.10;100.00
69630;BME280;56857;52.212;5.496;2024-02-15T06:17:54;101615.03;;;11.10;100.00
69630;BME280;56857;52.212;5.496;2024-02-15T06:20:19;101620.16;;;11.12;100.00
69630;BME280;56857;52.212;5.496;2024-02-15T06:22:48;101616.56;;;11.13;100.00
69630;BME280;56857;52.212;5.496;2024-02-15T06:25:13;101620.16;;;11.12;100.00
69630;BME280;56857;52.212;5.496;2024-02-15T06:27:39;101628.00;;;11.13;100.00
69630;BME280;56857;52.212;5.496;2024-02-15T06:30:05;101625.34;;;11.13;100.00
69630;BME280;56857;52.212;5.496;2024-02-15T06:32:30;101628.81;;;11.14;100.00
69630;BME280;56857;52.212;5.496;2024-02-15T06:34:55;101623.34;;;11.16;100.00
69630;BME280;56857;52.212;5.496;2024-02-15T06:37:39;101622.53;;;11.15;100.00
69630;BME280;56857;52.212;5.496;2024-02-15T06:40:05;101624.22;;;11.16;100.00
69630;BME280;56857;52.212;5.496;2024-02-15T06:42:30;101606.47;;;11.17;100.00
69630;BME280;56857;52.212;5.496;2024-02-15T06:44:56;101601.81;;;11.19;100.00
69630;BME280;56857;52.212;5.496;2024-02-15T06:47:21;101619.41;;;11.20;100.00
69630;BME280;56857;52.212;5.496;2024-02-15T06:49:46;101621.38;;;11.18;100.00
69630;BME280;56857;52.212;5.496;2024-02-15T06:52:12;101617.91;;;11.17;100.00
69630;BME280;56857;52.212;5.496;2024-02-15T06:54:38;101610.78;;;11.18;100.00
69630;BME280;56857;52.212;5.496;2024-02-15T06:57:04;101609.78;;;11.19;100.00
69630;BME280;56857;52.212;5.496;2024-02-15T06:59:31;101597.38;;;11.19;100.00
69630;BME280;56857;52.212;5.496;2024-02-15T07:01:56;101586.75;;;11.19;100.00
69630;BME280;56857;52.212;5.496;2024-02-15T07:04:21;101600.84;;;11.20;100.00
69630;BME280;56857;52.212;5.496;2024-02-15T07:06:47;101607.28;;;11.17;100.00
69630;BME280;56857;52.212;5.496;2024-02-15T07:09:12;101615.25;;;11.17;100.00
69630;BME280;56857;52.212;5.496;2024-02-15T07:11:38;101622.22;;;11.18;100.00
69630;BME280;56857;52.212;5.496;2024-02-15T07:14:03;101623.03;;;11.19;100.00
69630;BME280;56857;52.212;5.496;2024-02-15T07:16:28;101627.38;;;11.20;100.00
69630;BME280;56857;52.212;5.496;2024-02-15T07:18:53;101640.66;;;11.20;100.00
69630;BME280;56857;52.212;5.496;2024-02-15T07:21:22;101634.50;;;11.19;100.00
69630;BME280;56857;52.212;5.496;2024-02-15T07:23:47;101639.66;;;11.21;100.00
69630;BME280;56857;52.212;5.496;2024-02-15T07:26:13;101630.69;;;11.22;100.00
69630;BME280;56857;52.212;5.496;2024-02-15T07:28:39;101623.56;;;11.22;100.00
69630;BME280;56857;52.212;5.496;2024-02-15T07:31:04;101628.88;;;11.22;100.00
69630;BME280;56857;52.212;5.496;2024-02-15T07:33:29;101631.69;;;11.21;100.00
69630;BME280;56857;52.212;5.496;2024-02-15T07:35:55;101637.81;;;11.21;100.00
69630;BME280;56857;52.212;5.496;2024-02-15T07:38:20;101643.97;;;11.22;100.00
69630;BME280;56857;52.212;5.496;2024-02-15T07:40:45;101651.94;;;11.22;100.00
69630;BME280;56857;52.212;5.496;2024-02-15T07:43:11;101658.06;;;11.22;100.00
69630;BME280;56857;52.212;5.496;2024-02-15T07:45:36;101665.19;;;11.22;100.00
69630;BME280;56857;52.212;5.496;2024-02-15T07:48:02;101649.13;;;11.23;100.00
69630;BME280;56857;52.212;5.496;2024-02-15T07:50:28;101648.13;;;11.24;100.00
69630;BME280;56857;52.212;5.496;2024-02-15T07:52:53;101650.34;;;11.29;100.00
69630;BME280;56857;52.212;5.496;2024-02-15T07:55:18;101663.75;;;11.27;100.00
69630;BME280;56857;52.212;5.496;2024-02-15T07:57:44;101662.75;;;11.28;100.00
69630;BME280;56857;52.212;5.496;2024-02-15T08:00:09;101645.03;;;11.29;100.00
69630;BME280;56857;52.212;5.496;2024-02-15T08:02:35;101650.34;;;11.29;100.00
69630;BME280;56857;52.212;5.496;2024-02-15T08:05:00;101635.38;;;11.28;100.00
69630;BME280;56857;52.212;5.496;2024-02-15T08:07:25;101628.25;;;11.28;100.00
69630;BME280;56857;52.212;5.496;2024-02-15T08:09:51;101626.28;;;11.30;100.00
69630;BME280;56857;52.212;5.496;2024-02-15T08:12:16;101615.84;;;11.29;100.00
69630;BME280;56857;52.212;5.496;2024-02-15T08:14:41;101626.78;;;11.26;100.00
69630;BME280;56857;52.212;5.496;2024-02-15T08:17:07;101623.25;;;11.25;100.00
69630;BME280;56857;52.212;5.496;2024-02-15T08:19:32;101629.72;;;11.23;100.00
69630;BME280;56857;52.212;5.496;2024-02-15T08:22:05;101625.06;;;11.25;100.00
69630;BME280;56857;52.212;5.496;2024-02-15T08:24:31;101612.81;;;11.24;100.00
69630;BME280;56857;52.212;5.496;2024-02-15T08:26:56;101615.16;;;11.27;100.00
69630;BME280;56857;52.212;5.496;2024-02-15T08:29:21;101621.59;;;11.24;100.00
69630;BME280;56857;52.212;5.496;2024-02-15T08:31:46;101634.03;;;11.24;100.00
69630;BME280;56857;52.212;5.496;2024-02-15T08:34:12;101622.72;;;11.22;100.00
69630;BME280;56857;52.212;5.496;2024-02-15T08:36:37;101617.13;;;11.25;100.00
69630;BME280;56857;52.212;5.496;2024-02-15T08:39:02;101618.25;;;11.22;100.00
69630;BME280;56857;52.212;5.496;2024-02-15T08:41:28;101606.81;;;11.22;100.00
69630;BME280;56857;52.212;5.496;2024-02-15T08:43:53;101621.78;;;11.23;100.00
69630;BME280;56857;52.212;5.496;2024-02-15T08:46:19;101628.03;;;11.22;100.00
69630;BME280;56857;52.212;5.496;2024-02-15T08:48:45;101612.13;;;11.22;100.00
69630;BME280;56857;52.212;5.496;2024-02-15T08:51:11;101606.81;;;11.22;100.00
69630;BME280;56857;52.212;5.496;2024-02-15T08:53:36;101601.19;;;11.25;100.00
69630;BME280;56857;52.212;5.496;2024-02-15T08:56:02;101587.78;;;11.26;100.00
69630;BME280;56857;52.212;5.496;2024-02-15T08:58:28;101589.44;;;11.27;100.00
69630;BME280;56857;52.212;5.496;2024-02-15T09:00:53;101579.50;;;11.29;100.00
69630;BME280;56857;52.212;5.496;2024-02-15T09:03:18;101576.53;;;11.32;100.00
69630;BME280;56857;52.212;5.496;2024-02-15T09:05:44;101576.53;;;11.32;100.00
69630;BME280;56857;52.212;5.496;2024-02-15T09:08:09;101569.09;;;11.36;100.00
69630;BME280;56857;52.212;5.496;2024-02-15T09:10:34;101571.75;;;11.36;100.00
69630;BME280;56857;52.212;5.496;2024-02-15T09:13:00;101569.78;;;11.38;100.00
69630;BME280;56857;52.212;5.496;2024-02-15T09:15:25;101582.88;;;11.40;100.00
69630;BME280;56857;52.212;5.496;2024-02-15T09:17:50;101590.69;;;11.41;100.00
69630;BME280;56857;52.212;5.496;2024-02-15T09:20:17;101587.19;;;11.41;100.00
69630;BME280;56857;52.212;5.496;2024-02-15T09:22:50;101598.50;;;11.43;100.00
69630;BME280;56857;52.212;5.496;2024-02-15T09:25:19;101589.53;;;11.44;100.00
69630;BME280;56857;52.212;5.496;2024-02-15T09:27:45;101595.69;;;11.44;100.00
69630;BME280;56857;52.212;5.496;2024-02-15T09:30:10;101594.53;;;11.47;100.00
69630;BME280;56857;52.212;5.496;2024-02-15T09:32:36;101599.84;;;11.47;100.00
69630;BME280;56857;52.212;5.496;2024-02-15T09:35:02;101592.72;;;11.47;100.00
69630;BME280;56857;52.212;5.496;2024-02-15T09:37:27;101599.72;;;11.48;100.00
69630;BME280;56857;52.212;5.496;2024-02-15T09:39:53;101597.88;;;11.49;100.00
69630;BME280;56857;52.212;5.496;2024-02-15T09:42:18;101592.56;;;11.49;100.00
69630;BME280;56857;52.212;5.496;2024-02-15T09:44:43;101600.38;;;11.50;100.00
69630;BME280;56857;52.212;5.496;2024-02-15T09:47:09;101594.75;;;11.53;100.00
69630;BME280;56857;52.212;5.496;2024-02-15T09:49:37;101599.75;;;11.56;100.00
69630;BME280;56857;52.212;5.496;2024-02-15T09:52:03;101602.09;;;11.59;100.00
69630;BME280;56857;52.212;5.496;2024-02-15T09:54:30;101597.59;;;11.60;100.00
69630;BME280;56857;52.212;5.496;2024-02-15T09:56:56;101598.59;;;11.59;100.00
69630;BME280;56857;52.212;5.496;2024-02-15T09:59:23;101604.72;;;11.59;100.00
69630;BME280;56857;52.212;5.496;2024-02-15T10:01:49;101602.09;;;11.59;100.00
69630;BME280;56857;52.212;5.496;2024-02-15T10:04:14;101604.72;;;11.59;100.00
69630;BME280;56857;52.212;5.496;2024-02-15T10:06:40;101594.81;;;11.62;100.00
69630;BME280;56857;52.212;5.496;2024-02-15T10:09:28;101601.75;;;11.63;100.00
69630;BME280;56857;52.212;5.496;2024-02-15T10:11:55;101593.66;;;11.64;100.00
69630;BME280;56857;52.212;5.496;2024-02-15T10:14:20;101596.31;;;11.64;100.00
69630;BME280;56857;52.212;5.496;2024-02-15T10:16:45;101604.41;;;11.63;100.00
69630;BME280;56857;52.212;5.496;2024-02-15T10:19:12;101604.09;;;11.66;100.00
69630;BME280;56857;52.212;5.496;2024-02-15T10:21:37;101607.28;;;11.69;100.00
69630;BME280;56857;52.212;5.496;2024-02-15T10:24:06;101600.69;;;11.73;100.00
69630;BME280;56857;52.212;5.496;2024-02-15T10:26:32;101594.38;;;11.74;100.00
69630;BME280;56857;52.212;5.496;2024-02-15T10:29:08;101598.69;;;11.75;100.00
69630;BME280;56857;52.212;5.496;2024-02-15T10:31:37;101601.19;;;11.77;100.00
69630;BME280;56857;52.212;5.496;2024-02-15T10:34:04;101595.72;;;11.78;100.00
69630;BME280;56857;52.212;5.496;2024-02-15T10:36:30;101598.34;;;11.78;100.00
69630;BME280;56857;52.212;5.496;2024-02-15T10:39:10;101596.38;;;11.80;100.00
69630;BME280;56857;52.212;5.496;2024-02-15T10:41:37;101598.44;;;11.87;100.00
69630;BME280;56857;52.212;5.496;2024-02-15T10:44:03;101596.28;;;11.90;100.00
69630;BME280;56857;52.212;5.496;2024-02-15T10:46:29;101588.00;;;11.93;100.00
69630;BME280;56857;52.212;5.496;2024-02-15T10:48:55;101590.53;;;11.95;100.00
69630;BME280;56857;52.212;5.496;2024-02-15T10:51:21;101596.16;;;12.00;100.00
69630;BME280;56857;52.212;5.496;2024-02-15T10:53:57;101595.84;;;12.03;100.00
69630;BME280;56857;52.212;5.496;2024-02-15T10:56:33;101595.22;;;12.09;100.00
69630;BME280;56857;52.212;5.496;2024-02-15T10:59:10;101593.88;;;12.13;100.00
69630;BME280;56857;52.212;5.496;2024-02-15T11:01:42;101588.44;;;12.15;100.00
69630;BME280;56857;52.212;5.496;2024-02-15T11:04:08;101597.22;;;12.15;100.00
69630;BME280;56857;52.212;5.496;2024-02-15T11:06:38;101586.59;;;12.15;100.00
69630;BME280;56857;52.212;5.496;2024-02-15T11:09:05;101586.59;;;12.15;100.00
69630;BME280;56857;52.212;5.496;2024-02-15T11:11:30;101576.47;;;12.19;100.00
69630;BME280;56857;52.212;5.496;2024-02-15T11:14:30;101580.47;;;12.23;100.00
69630;BME280;56857;52.212;5.496;2024-02-15T11:16:56;101573.00;;;12.26;100.00
69630;BME280;56857;52.212;5.496;2024-02-15T11:22:22;101569.34;;;12.36;100.00
69630;BME280;56857;52.212;5.496;2024-02-15T11:24:51;101569.03;;;12.39;100.00
69630;BME280;56857;52.212;5.496;2024-02-15T11:27:29;101564.25;;;12.42;100.00
69630;BME280;56857;52.212;5.496;2024-02-15T11:29:56;101565.56;;;12.46;100.00
69630;BME280;56857;52.212;5.496;2024-02-15T11:32:51;101568.22;;;12.46;100.00
69630;BME280;56857;52.212;5.496;2024-02-15T11:35:23;101568.03;;;12.48;100.00
69630;BME280;56857;52.212;5.496;2024-02-15T11:40:22;101560.25;;;12.46;100.00
69630;BME280;56857;52.212;5.496;2024-02-15T11:42:48;101557.59;;;12.46;100.00
69630;BME280;56857;52.212;5.496;2024-02-15T11:45:15;101557.75;;;12.45;100.00
69630;BME280;56857;52.212;5.496;2024-02-15T11:47:41;101560.25;;;12.46;100.00
69630;BME280;56857;52.212;5.496;2024-02-15T11:50:10;101548.47;;;12.49;100.00
69630;BME280;56857;52.212;5.496;2024-02-15T11:52:35;101541.13;;;12.51;100.00
69630;BME280;56857;52.212;5.496;2024-02-15T11:55:07;101549.78;;;12.53;100.00
69630;BME280;56857;52.212;5.496;2024-02-15T11:57:32;101540.78;;;12.54;100.00
69630;BME280;56857;52.212;5.496;2024-02-15T11:59:58;101545.78;;;12.57;100.00
69630;BME280;56857;52.212;5.496;2024-02-15T12:02:23;101539.16;;;12.61;100.00
69630;BME280;56857;52.212;5.496;2024-02-15T12:04:49;101544.16;;;12.64;100.00
69630;BME280;56857;52.212;5.496;2024-02-15T12:07:15;101540.31;;;12.67;100.00
69630;BME280;56857;52.212;5.496;2024-02-15T12:09:40;101535.66;;;12.69;100.00
69630;BME280;56857;52.212;5.496;2024-02-15T12:12:06;101530.84;;;12.72;100.00
69630;BME280;56857;52.212;5.496;2024-02-15T12:14:31;101524.34;;;12.75;100.00
69630;BME280;56857;52.212;5.496;2024-02-15T12:17:06;101517.88;;;12.78;100.00
69630;BME280;56857;52.212;5.496;2024-02-15T12:19:32;101513.03;;;12.81;100.00
69630;BME280;56857;52.212;5.496;2024-02-15T12:21:58;101515.38;;;12.84;100.00
69630;BME280;56857;52.212;5.496;2024-02-15T12:24:24;101514.22;;;12.87;100.00
69630;BME280;56857;52.212;5.496;2024-02-15T12:26:49;101506.72;;;12.90;100.00
69630;BME280;56857;52.212;5.496;2024-02-15T12:29:18;101507.22;;;12.94;100.00
69630;BME280;56857;52.212;5.496;2024-02-15T12:31:43;101499.38;;;13.01;100.00
69630;BME280;56857;52.212;5.496;2024-02-15T12:34:08;101495.22;;;13.06;100.00
69630;BME280;56857;52.212;5.496;2024-02-15T12:36:35;101480.56;;;13.10;100.00
69630;BME280;56857;52.212;5.496;2024-02-15T12:39:02;101484.53;;;13.14;100.00
69630;BME280;56857;52.212;5.496;2024-02-15T12:41:27;101473.19;;;13.20;100.00
69630;BME280;56857;52.212;5.496;2024-02-15T12:43:53;101478.19;;;13.23;100.00